x

9444090 - Port Angeles, Wa (ptaw1) Weather Station

6:36 - Wed 27th Jul 2016 All times are PDT. -7 hours from GMT.

  • Wind
    15mph, 17mph gusts
  • Sea Temp 54°f
  • Air Temp 62°f
  • Sea Pressure 1018.8mb
  • 9444090 - Port Angeles, Wa
  • 9444090 - Port Angeles, Wa

More Historic Weather Station data

Upgrade to MSW Pro to gain access to the past 30 days of data for over 8000 Wavebouys and Weather Stations around the globe.

Join Pro

Comparision Forecast

View Surf forecast
   
mer. 07/27 6:36 15 17 mph 1018.8mb 54f 62f
6:30 15 21 mph 1018.8mb 55f 62f
6:24 18 21 mph 1018.9mb 55f 61f
6:18 17 20 mph 1018.9mb 55f 60f
6:12 15 17 mph 1018.9mb 55f 60f
6:06 15 17 mph 1018.9mb 55f 61f
6:00 15 16 mph 1019mb 55f 60f
5:36 17 21 mph 1019.3mb 55f 59f
5:30 18 21 mph 1019.4mb 55f 59f
5:24 18 21 mph 1019.5mb 55f 59f
5:18 18 22 mph 1019.6mb 55f 58f
5:12 16 20 mph 1019.7mb 55f 59f
5:06 18 21 mph 1019.6mb 55f 58f
5:00 17 22 mph 1019.6mb 55f 58f
4:36 16 18 mph 1019.5mb 55f 58f
4:30 17 20 mph 1019.5mb 55f 57f
4:24 16 20 mph 1019.5mb 55f 57f
4:18 17 20 mph 1019.5mb 55f 58f
4:12 18 21 mph 1019.5mb 55f 57f
4:06 18 21 mph 1019.5mb 55f 57f
4:00 17 20 mph 1019.5mb 55f 57f
3:36 16 18 mph 1019.7mb 54f 57f
3:30 16 18 mph 1019.7mb 54f 57f
3:24 15 18 mph 1019.7mb 54f 56f
3:18 16 18 mph 1019.8mb 54f 56f
3:12 15 17 mph 1019.9mb 54f 56f
3:06 16 20 mph 1020mb 54f 56f
3:00 17 21 mph 1020.1mb 54f 56f
2:36 16 18 mph 1020.3mb 54f 56f
2:30 15 18 mph 1020.3mb 54f 56f
2:24 16 18 mph 1020.3mb 54f 56f
2:18 17 21 mph 1020.3mb 54f 56f
2:12 17 20 mph 1020.4mb 54f 56f
2:06 16 18 mph 1020.4mb 54f 56f
2:00 14 16 mph 1020.4mb 54f 56f
1:36 15 18 mph 1020.7mb 53f 56f
1:30 15 17 mph 1020.7mb 53f 56f
1:24 14 16 mph 1020.7mb 53f 56f
1:18 13 16 mph 1020.8mb 53f 56f
1:12 14 16 mph 1020.8mb 53f 56f
1:06 14 16 mph 1020.9mb 53f 56f
1:00 13 15 mph 1020.9mb 53f 56f
12:36 9 10 mph 1020.9mb 53f 56f
12:30 8 10 mph 1020.9mb 53f 56f
12:24 9 11 mph 1021mb 53f 56f
12:18 9 10 mph 1021mb 53f 56f
12:12 7 9 mph 1020.9mb 53f 56f
12:06 9 11 mph 1020.9mb 53f 56f
12:00 10 13 mph 1020.8mb 53f 56f
11:36 10 11 mph 1020.8mb 53f 56f
11:30 6 8 mph 1020.8mb 53f 56f
11:24 3 6 mph 1020.8mb 53f 58f
11:18 2
mph
1020.8mb 53f 59f
11:12  -  2 mph 1020.7mb 53f 58f
11:06  -  2 mph 1020.8mb 53f 57f
11:00 1 2 mph 1020.7mb 53f 56f
10:36 3 7 mph 1020.8mb 53f 56f
10:30 6 7 mph 1020.9mb 53f 57f
10:24 2 5 mph 1020.9mb 53f 58f
10:18 2 3 mph 1020.9mb 53f 62f
10:12 1 2 mph 1021mb 53f 61f
10:06 2 3 mph 1020.9mb 53f 61f
10:00 2
mph
1020.9mb 53f 60f
9:36 2 5 mph 1021mb 53f 56f
9:30 3 5 mph 1021.1mb 53f 56f
9:24 3 5 mph 1021.1mb 53f 56f
9:18 2
mph
1021.2mb 53f 56f
9:12 1 2 mph 1021.2mb 53f 56f
9:06 1 2 mph 1021.2mb 53f 56f
9:00 1 3 mph 1021.2mb 53f 55f
8:36 1 2 mph 1021.2mb 53f 53f
8:30 1 2 mph 1021.1mb 53f 53f
8:24 2 3 mph 1021.1mb 53f 53f
8:18 1 2 mph 1021.1mb 53f 53f
8:12 2 3 mph 1021.1mb 53f 52f
8:06 2 5 mph 1021.1mb 53f 53f
8:00 3 5 mph 1021.2mb 53f 53f
7:36 3 5 mph 1021.1mb 53f 53f
7:30 2 3 mph 1021mb 53f 53f
7:24 2 3 mph 1021mb 53f 53f
7:18 1 2 mph 1021mb 53f 53f
7:12 1 2 mph 1021mb 53f 53f
7:06 2
mph
1021mb 53f 53f
7:00 2 5 mph 1021mb 53f 53f
6:36  -  2 mph 1020.8mb 53f 53f
6:30  -  2 mph 1020.7mb 53f 53f
6:24 1 2 mph 1020.6mb 53f 53f
6:18 1 3 mph 1020.6mb 53f 53f
6:12 2
mph
1020.5mb 53f 53f
6:06 2 5 mph 1020.5mb 53f 53f
6:00 6
mph
1020.4mb 53f 53f
5:36 1
mph
1020.2mb 53f 53f
5:30 1 2 mph 1020.2mb 53f 53f
5:24 1 2 mph 1020.2mb 53f 53f
5:18 2 5 mph 1020.2mb 53f 53f
5:12 2 6 mph 1020.3mb 53f 53f
5:06 3 6 mph 1020.3mb 53f 53f
5:00 3 5 mph 1020.2mb 53f 54f
4:36 5 7 mph 1020.2mb 53f 54f
4:30 7 8 mph 1020.1mb 53f 54f
4:24 8 9 mph 1020.1mb 53f 54f
4:18 6 8 mph 1020.2mb 53f 54f
4:12 5 6 mph 1020.1mb 53f 54f
4:06 2 3 mph 1020.1mb 53f 54f
4:00 3 5 mph 1020mb 53f 54f
3:36 2 5 mph 1020.1mb 53f 55f
3:30 2 5 mph 1020.1mb 53f 55f
3:24 1 3 mph 1020.1mb 53f 55f
3:18 3 6 mph 1020.1mb 53f 55f
3:12 6 9 mph 1020.1mb 53f 55f
3:06 8 10 mph 1019.9mb 53f 55f
3:00 8 11 mph 1019.8mb 53f 55f
2:36 3 6 mph 1019.6mb 53f 55f
2:30 3 7 mph 1019.7mb 53f 55f
2:24 2 5 mph 1019.7mb 53f 55f
2:18 3 6 mph 1019.8mb 53f 55f
2:12 6 7 mph 1019.8mb 53f 55f
2:06 3 6 mph 1019.9mb 53f 55f
2:00 5 7 mph 1019.8mb 53f 55f
1:36 6 8 mph 1019.7mb 53f 55f
1:30 6 8 mph 1019.7mb 53f 55f
1:24 6 8 mph 1019.7mb 53f 55f
1:18 6 8 mph 1019.7mb 53f 55f
1:12 5 7 mph 1019.7mb 53f 55f
1:06 5 6 mph 1019.8mb 53f 55f
1:00 3 6 mph 1019.8mb 53f 55f
12:36 9 11 mph 1019.9mb 53f 55f
12:30 8 10 mph 1020mb 53f 55f
12:24 8 10 mph 1020mb 53f 56f
12:18 7 9 mph 1020mb 53f 56f
12:12 6 8 mph 1020mb 53f 56f
12:06 5 8 mph 1019.9mb 53f 56f
12:00 6 8 mph 1019.9mb 53f 56f
mar. 07/26 11:36 8 11 mph 1019.9mb 53f 56f
11:30 9 13 mph 1019.9mb 53f 56f
11:24 9 13 mph 1020mb 53f 56f
11:18 7 10 mph 1020mb 53f 56f
11:12 7 9 mph 1020mb 53f 56f
11:06 7 9 mph 1020.1mb 53f 56f
11:00 10 13 mph 1020.1mb 53f 56f
10:36 9 14 mph 1020.1mb 53f 56f
10:30 9 14 mph 1020.2mb 53f 56f
10:24 8 10 mph 1020.3mb 53f 56f
10:18 9 11 mph 1020.3mb 53f 56f
10:12 8 11 mph 1020.3mb 53f 56f
10:06 11 17 mph 1020.4mb 53f 56f
10:00 11 15 mph 1020.4mb 53f 56f
9:36 7 10 mph 1020.5mb 53f 56f
9:30 8 10 mph 1020.5mb 53f 56f
9:24 7 9 mph 1020.4mb 53f 56f
9:18 7 11 mph 1020.4mb 53f 56f
9:12 9 13 mph 1020.3mb 53f 56f
9:06 10 13 mph 1020.2mb 53f 56f
9:00 11 14 mph 1020.1mb 53f 56f
8:36 13 16 mph 1019.9mb 53f 56f
8:30 14 16 mph 1019.8mb 53f 56f
8:24 14 16 mph 1019.7mb 53f 56f
8:18 15 20 mph 1019.7mb 53f 56f
8:12 16 20 mph 1019.6mb 53f 56f
8:06 16 20 mph 1019.6mb 53f 56f
8:00 15 18 mph 1019.6mb 53f 56f
7:54 14 20 mph 1019.6mb 53f 56f
7:48 15 21 mph 1019.6mb 53f 57f
7:36 15 22 mph 1019.5mb 54f 56f
7:30 20 24 mph 1019.5mb 54f 56f
7:24 20 23 mph 1019.4mb 54f 56f
7:18 20 23 mph 1019.4mb 53f 56f
7:12 18 22 mph 1019.3mb 53f 57f
7:06 17 22 mph 1019.3mb 53f 57f
7:00 18 22 mph 1019.3mb 53f 57f
6:54 18 23 mph 1019.3mb 53f 57f
6:48 20 24 mph 1019.3mb 53f 57f
6:36 18 24 mph 1019.3mb 53f 57f
6:30 20 24 mph 1019.3mb 53f 57f
6:24 18 24 mph 1019.4mb 53f 57f
6:18 17 23 mph 1019.4mb 53f 57f
6:12 17 21 mph 1019.5mb 53f 57f
6:06 18 22 mph 1019.5mb 53f 58f
6:00 18 23 mph 1019.5mb 53f 57f
5:54 17 22 mph 1019.6mb 53f 57f
5:48 18 26 mph 1019.6mb 53f 57f
5:36 18 24 mph 1019.6mb 53f 57f
5:30 18 26 mph 1019.7mb 53f 57f
5:24 18 24 mph 1019.7mb 53f 57f
5:18 21 25 mph 1019.8mb 53f 57f
5:12 20 25 mph 1019.8mb 53f 57f
5:06 20 26 mph 1019.7mb 53f 57f
5:00 22 26 mph 1019.8mb 53f 57f
4:36 21 26 mph 1019.9mb 54f 57f
4:30 20 26 mph 1019.8mb 54f 57f
4:24 21 26 mph 1019.8mb 54f 57f
4:18 20 25 mph 1019.9mb 54f 57f
4:12 22 26 mph 1020mb 54f 57f
4:06 21 24 mph 1020.1mb 54f 58f
4:00 21 26 mph 1020.1mb 54f 57f
3:54 20 25 mph 1020.1mb 54f 58f
3:48 20 23 mph 1020.1mb 54f 58f
3:36 21 25 mph 1020.2mb 53f 57f
3:30 20 24 mph 1020.3mb 53f 58f
3:24 21 26 mph 1020.4mb 53f 58f
3:18 22 26 mph 1020.4mb 53f 58f
3:12 18 24 mph 1020.5mb 53f 58f
3:06 21 25 mph 1020.5mb 53f 58f
3:00 17 24 mph 1020.6mb 53f 57f
2:54 21 24 mph 1020.7mb 53f 57f
2:48 20 24 mph 1020.7mb 53f 58f
2:36 21 25 mph 1020.8mb 53f 58f
2:30 18 22 mph 1020.9mb 53f 58f
2:24 17 21 mph 1020.9mb 53f 58f
2:18 18 22 mph 1020.9mb 53f 58f
2:12 16 23 mph 1020.9mb 54f 57f
2:06 17 23 mph 1021mb 54f 57f
2:00 18 23 mph 1021mb 54f 57f
1:54 18 21 mph 1021mb 54f 57f
1:48 15 18 mph 1021mb 54f 57f
1:36 17 20 mph 1021.1mb 54f 57f
1:30 16 20 mph 1021.1mb 53f 57f
1:24 15 20 mph 1021.1mb 53f 57f
1:18 15 22 mph 1021mb 53f 57f
1:12 15 22 mph 1021.1mb 53f 57f
1:06 18 22 mph 1021.2mb 53f 57f
1:00 15 18 mph 1021.1mb 53f 57f
12:54 16 21 mph 1021.1mb 53f 57f
12:48 15 20 mph 1021.1mb 53f 57f
12:36 15 21 mph 1021.2mb 53f 57f
12:30 17 22 mph 1021.3mb 53f 57f
12:24 15 20 mph 1021.3mb 53f 57f
12:18 17 21 mph 1021.3mb 53f 57f
12:12 16 20 mph 1021.4mb 53f 57f
12:06 16 20 mph 1021.4mb 53f 57f
12:00 16 21 mph 1021.4mb 53f 57f
11:54 15 18 mph 1021.4mb 53f 57f
11:48 15 20 mph 1021.5mb 53f 57f
11:36 14 20 mph 1021.5mb 53f 57f
11:30 16 20 mph 1021.5mb 53f 57f
11:24 14 20 mph 1021.5mb 53f 57f
11:18 15 20 mph 1021.5mb 53f 56f
11:12 16 22 mph 1021.5mb 53f 56f
11:06 16 20 mph 1021.6mb 53f 56f
11:00 15 21 mph 1021.6mb 53f 56f
10:54 17 21 mph 1021.5mb 53f 56f
10:48 14 21 mph 1021.5mb 53f 56f
10:36 15 20 mph 1021.4mb 53f 56f
10:30 14 21 mph 1021.4mb 53f 56f
10:24 15 18 mph 1021.4mb 53f 56f
10:18 16 20 mph 1021.5mb 52f 56f
10:12 15 18 mph 1021.5mb 52f 56f
10:06 15 20 mph 1021.4mb 52f 56f
10:00 14 18 mph 1021.4mb 52f 56f
9:54 16 18 mph 1021.4mb 52f 56f
9:48 15 18 mph 1021.4mb 52f 56f
9:36 15 18 mph 1021.4mb 52f 56f
9:30 15 18 mph 1021.4mb 52f 57f
9:24 15 18 mph 1021.4mb 52f 56f
9:18 15 18 mph 1021.4mb 52f 57f
9:12 15 20 mph 1021.4mb 52f 56f
9:06 16 20 mph 1021.3mb 53f 57f
9:00 15 17 mph 1021.3mb 53f 57f
8:54 14 18 mph 1021.3mb 53f 57f
8:48 13 15 mph 1021.3mb 53f 57f
8:36 14 17 mph 1021.2mb 53f 57f
8:30 14 17 mph 1021.2mb 53f 57f
8:24 13 15 mph 1021.1mb 53f 57f
8:18 11 16 mph 1021.1mb 53f 58f
8:12 13 15 mph 1021.1mb 53f 57f
8:06 9 13 mph 1021.1mb 53f 58f
8:00 10 15 mph 1021.1mb 52f 58f
7:54 10 15 mph 1021mb 52f 58f
7:48 9 16 mph 1020.9mb 52f 58f
7:36 9 15 mph 1020.9mb 52f 58f
7:30 9 14 mph 1020.9mb 52f 58f
7:24 9 14 mph 1020.9mb 52f 58f
7:18 9 13 mph 1020.8mb 52f 58f
7:12 7 9 mph 1020.8mb 52f 58f
7:06 6 10 mph 1020.8mb 52f 57f
7:00 8 10 mph 1020.7mb 52f 57f
6:54 8 14 mph 1020.7mb 52f 57f
6:48 7 14 mph 1020.6mb 52f 57f
6:36 6 10 mph 1020.4mb 52f 57f
6:30 7 14 mph 1020.4mb 52f 57f
6:24 7 10 mph 1020.4mb 52f 57f
6:18 8 11 mph 1020.4mb 52f 57f
6:12 6 10 mph 1020.4mb 52f 56f
6:06 9 13 mph 1020.4mb 53f 57f
6:00 9 10 mph 1020.3mb 53f 57f
5:54 8 13 mph 1020.3mb 53f 57f
5:48 10 14 mph 1020.3mb 53f 57f
5:36 9 14 mph 1020.2mb 53f 57f
5:30 11 20 mph 1020.2mb 53f 57f
5:24 10 14 mph 1020.1mb 53f 57f
5:18 11 17 mph 1020.1mb 53f 57f
5:12 9 14 mph 1020mb 53f 57f
5:06 6 10 mph 1020mb 53f 56f
5:00 7 10 mph 1020mb 53f 56f
4:54 9 13 mph 1019.9mb 53f 57f
4:48 8 14 mph 1019.8mb 53f 57f
4:36 9 15 mph 1019.7mb 53f 57f
4:30 13 15 mph 1019.7mb 53f 57f
4:24 11 14 mph 1019.7mb 53f 57f
4:18 11 16 mph 1019.7mb 53f 57f
4:12 11 16 mph 1019.6mb 53f 57f
4:06 10 16 mph 1019.6mb 53f 57f
4:00 11 15 mph 1019.5mb 53f 57f
3:54 10 14 mph 1019.5mb 52f 57f
3:48 10 16 mph 1019.4mb 52f 57f
3:36 14 17 mph 1019.3mb 53f 57f
3:30 13 17 mph 1019.3mb 53f 57f
3:24 13 20 mph 1019.4mb 53f 57f
3:18 14 20 mph 1019.3mb 53f 57f
3:12 14 17 mph 1019.2mb 53f 57f
3:06 13 18 mph 1019.1mb 53f 58f
3:00 14 17 mph 1019.2mb 52f 58f
2:54 13 17 mph 1019.1mb 52f 58f
2:48 13 20 mph 1019.1mb 53f 58f
2:36 13 18 mph 1019mb 53f 58f
2:30 15 20 mph 1018.9mb 53f 58f
2:24 14 20 mph 1018.9mb 53f 58f
2:18 16 22 mph 1018.9mb 53f 58f
2:12 16 22 mph 1018.9mb 53f 58f
2:06 15 20 mph 1018.9mb 53f 58f
2:00 15 18 mph 1018.9mb 53f 58f
1:54 15 20 mph 1019mb 53f 58f
1:48 14 21 mph 1019mb 53f 58f
1:36 14 18 mph 1018.8mb 53f 58f
1:30 13 20 mph 1018.8mb 53f 58f
1:24 15 22 mph 1018.7mb 53f 58f
1:18 15 23 mph 1018.7mb 53f 58f
1:12 17 24 mph 1018.6mb 53f 58f
1:06 18 23 mph 1018.6mb 53f 58f
1:00 18 25 mph 1018.6mb 53f 58f
12:54 17 22 mph 1018.6mb 53f 58f
12:48 16 22 mph 1018.5mb 53f 58f
12:36 18 23 mph 1018.5mb 53f 58f
12:30 20 24 mph 1018.5mb 53f 58f
12:24 17 23 mph 1018.5mb 53f 58f
12:18 17 23 mph 1018.5mb 53f 58f
12:12 14 18 mph 1018.5mb 53f 58f
12:06 15 20 mph 1018.5mb 53f 58f
12:00 16 21 mph 1018.5mb 53f 58f
lun. 07/25 11:54 15 21 mph 1018.4mb 53f 58f
11:48 15 21 mph 1018.4mb 53f 58f
11:36 15 21 mph 1018.4mb 53f 58f
11:30 14 20 mph 1018.5mb 53f 58f
11:24 17 21 mph 1018.5mb 53f 58f
11:18 15 18 mph 1018.5mb 53f 58f
11:12 14 20 mph 1018.5mb 53f 58f
11:06 14 20 mph 1018.4mb 53f 58f
11:00 15 21 mph 1018.4mb 53f 58f
10:36 14 20 mph 1018.5mb 53f 59f
10:30 16 22 mph 1018.5mb 53f 59f
10:24 15 21 mph 1018.5mb 53f 59f
10:18 16 21 mph 1018.5mb 53f 59f
10:12 20 26 mph 1018.5mb 53f 59f
10:06 16 23 mph 1018.4mb 53f 59f
10:00 18 24 mph 1018.5mb 53f 59f
9:54 16 21 mph 1018.5mb 53f 59f
9:48 15 24 mph 1018.4mb 53f 59f
9:36 17 22 mph 1018.4mb 53f 59f
9:30 14 18 mph 1018.3mb 53f 59f
9:24 13 18 mph 1018.3mb 53f 60f
9:18 13 16 mph 1018.2mb 53f 59f
9:12 11 17 mph 1018.2mb 53f 60f
9:06 10 14 mph 1018.1mb 53f 60f
9:00 11 16 mph 1018.1mb 53f 60f
8:54 14 17 mph 1018mb 53f 59f
8:48 13 17 mph 1018.1mb 53f 59f
8:36 14 20 mph 1018mb 53f 59f
8:30 11 17 mph 1018.1mb 53f 59f
8:24 13 16 mph 1018mb 53f 59f
8:18 15 20 mph 1018.1mb 53f 59f
8:12 13 21 mph 1018.1mb 53f 59f
8:06 15 21 mph 1018.1mb 53f 58f
8:00 15 20 mph 1018mb 53f 58f
7:54 15 20 mph 1018mb 53f 58f
7:48 16 22 mph 1017.9mb 53f 58f
7:36 18 23 mph 1017.9mb 53f 58f
7:30 18 23 mph 1017.9mb 54f 57f
7:24 18 23 mph 1017.8mb 54f 57f
7:18 20 24 mph 1017.8mb 54f 57f
7:12 18 23 mph 1017.7mb 54f 57f
7:06 20 25 mph 1017.7mb 54f 57f
7:00 20 24 mph 1017.6mb 54f 58f
6:54 20 26 mph 1017.6mb 54f 58f
6:48 20 24 mph 1017.6mb 54f 58f
6:36 20 24 mph 1017.5mb 54f 58f
6:30 18 26 mph 1017.5mb 54f 58f
6:24 18 23 mph 1017.5mb 54f 58f
6:18 20 23 mph 1017.5mb 54f 58f
6:12 22 24 mph 1017.5mb 54f 58f
6:06 21 25 mph 1017.5mb 54f 58f
6:00 22 25 mph 1017.5mb 54f 58f
5:54 23 26 mph 1017.5mb 54f 58f
5:48 21 25 mph 1017.7mb 54f 58f
5:36 22 26 mph 1017.7mb 54f 58f
5:30 21 25 mph 1017.8mb 54f 58f
5:24 18 24 mph 1017.9mb 54f 59f
5:18 20 25 mph 1017.9mb 54f 59f
5:12 20 25 mph 1017.9mb 54f 59f
5:06 20 25 mph 1017.9mb 54f 59f
5:00 21 25 mph 1017.9mb 54f 59f
4:54 20 24 mph 1017.9mb 54f 58f
4:48 22 25 mph 1017.9mb 54f 58f
4:36 21 25 mph 1017.9mb 54f 59f
4:30 18 23 mph 1017.8mb 54f 58f
4:24 21 26 mph 1017.9mb 54f 59f
4:18 21 25 mph 1018mb 54f 59f
4:12 18 23 mph 1018.1mb 54f 59f
4:06 16 22 mph 1018.1mb 54f 59f
4:00 20 23 mph 1018.1mb 54f 58f
3:54 21 24 mph 1018.1mb 54f 59f
3:48 22 25 mph 1018.1mb 54f 58f
3:36 21 24 mph 1018.2mb 54f 58f
3:30 18 23 mph 1018.3mb 54f 59f
3:24 21 24 mph 1018.3mb 54f 59f
3:18 21 23 mph 1018.3mb 53f 59f
3:12 20 22 mph 1018.4mb 53f 59f
3:06 20 23 mph 1018.4mb 53f 59f
3:00 20 23 mph 1018.4mb 53f 59f
2:54 21 24 mph 1018.4mb 53f 59f
2:48 17 23 mph 1018.4mb 53f 59f
2:36 20 23 mph 1018.4mb 53f 58f
2:30 20 24 mph 1018.4mb 53f 58f
2:24 22 25 mph 1018.5mb 54f 58f
2:18 21 25 mph 1018.5mb 54f 58f
2:12 21 25 mph 1018.5mb 54f 57f
2:06 20 23 mph 1018.5mb 54f 58f
2:00 20 23 mph 1018.5mb 54f 58f
1:36 18 23 mph 1018.7mb 53f 58f
1:30 18 22 mph 1018.6mb 53f 58f
1:24 20 23 mph 1018.6mb 53f 58f
1:18 18 22 mph 1018.6mb 53f 58f
1:12 18 22 mph 1018.7mb 53f 58f
1:06 20 24 mph 1018.7mb 53f 58f
1:00 20 23 mph 1018.7mb 53f 58f
12:54 18 22 mph 1018.6mb 53f 58f
12:48 18 22 mph 1018.6mb 53f 58f
12:36 17 22 mph 1018.7mb 53f 58f
12:30 18 21 mph 1018.7mb 53f 58f
12:24 18 21 mph 1018.7mb 53f 57f
12:18 18 21 mph 1018.7mb 53f 58f
12:12 17 20 mph 1018.8mb 53f 58f
12:06 15 18 mph 1018.8mb 53f 58f
12:00 16 20 mph 1018.8mb 53f 57f
11:54 17 21 mph 1018.9mb 52f 57f
11:48 17 21 mph 1018.9mb 52f 57f
11:36  -  mph 1018.9mb 52f 57f
11:30  -  mph 1018.8mb 52f 57f
11:24  -  mph 1018.9mb 52f 57f
11:18  -  mph 1018.8mb 52f 56f
11:12  -  mph 1018.9mb 52f 56f
11:00  -  mph 1018.9mb 52f 56f
10:54  -  mph 1018.9mb 52f 56f
10:48  -  mph 1018.9mb 52f 56f
10:36 14 15 mph 1018.8mb 53f 56f
10:30 14 17 mph 1018.7mb 53f 56f
10:24 15 18 mph 1018.7mb 53f 56f
10:18 15 20 mph 1018.6mb 53f 56f
10:12 16 20 mph 1018.6mb 53f 55f
10:06 17 20 mph 1018.6mb 53f 55f
10:00 16 18 mph 1018.6mb 53f 55f
9:54 16 20 mph 1018.6mb 53f 55f
9:48 16 21 mph 1018.6mb 53f 56f
9:36 13 16 mph 1018.6mb 53f 55f
9:30 11 14 mph 1018.6mb 53f 55f
9:24 9 10 mph 1018.6mb 52f 55f
9:18 8 10 mph 1018.6mb 52f 55f
9:12 10 13 mph 1018.6mb 52f 55f
9:06 11 14 mph 1018.6mb 52f 55f
9:00 10 13 mph 1018.6mb 52f 55f
8:54 11 14 mph 1018.6mb 52f 55f
8:48 11 14 mph 1018.6mb 52f 55f
8:36 10 13 mph 1018.6mb 52f 55f
8:30 10 13 mph 1018.6mb 52f 54f
8:24 13 16 mph 1018.5mb 52f 55f
8:18 13 16 mph 1018.5mb 52f 55f
8:12 14 15 mph 1018.5mb 52f 55f
8:06 14
mph
1018.4mb 52f 55f
8:00 10 13 mph 1018.4mb 52f 55f
7:54 11 14 mph 1018.3mb 52f 55f
7:48 10 14 mph 1018.3mb 52f 55f
7:36 5 6 mph 1018.3mb 52f 55f
7:30 6 10 mph 1018.3mb 52f 56f
7:24 9 10 mph 1018.3mb 52f 55f
7:18 8 9 mph 1018.2mb 52f 55f
7:12 3 5 mph 1018.2mb 53f 55f
7:06 2 3 mph 1018.2mb 53f 56f
7:00 3 5 mph 1018.2mb 53f 56f
6:54 5 6 mph 1018.2mb 53f 56f
6:48 3 6 mph 1018.2mb 53f 56f
6:36 5 7 mph 1018mb 53f 56f
6:30 5 7 mph 1018mb 53f 56f
6:24 5
mph
1018.1mb 53f 56f
6:18  -  2 mph 1017.9mb 53f 56f
6:12  -  1 mph 1017.9mb 53f 56f
6:06  -  1 mph 1017.8mb 53f 56f
6:00  -  1 mph 1017.7mb 53f 56f
5:36 2 5 mph 1017.6mb 53f 56f
5:30 3 5 mph 1017.5mb 53f 56f
5:24 2 5 mph 1017.6mb 53f 56f
5:18 5 6 mph 1017.5mb 53f 56f
5:12 5
mph
1017.5mb 53f 56f
5:06 5 6 mph 1017.5mb 53f 56f
5:00 3 5 mph 1017.4mb 53f 56f
4:54 3 6 mph 1017.5mb 53f 56f
4:48 6 8 mph 1017.4mb 53f 56f
4:36 6 8 mph 1017.4mb 53f 56f
4:30 7 9 mph 1017.4mb 53f 56f
4:24 7 8 mph 1017.3mb 53f 55f
4:18 6 7 mph 1017.3mb 53f 55f
4:12 6 7 mph 1017.3mb 53f 56f
4:06 6 7 mph 1017.3mb 53f 56f
4:00 6
mph
1017.2mb 53f 56f
3:54 5 6 mph 1017.3mb 53f 56f
3:48 5 6 mph 1017.3mb 53f 56f
3:36 6 7 mph 1017.3mb 53f 56f
3:30 6 9 mph 1017.3mb 53f 56f
3:24 9 11 mph 1017.3mb 53f 56f
3:18 7 8 mph 1017.3mb 53f 56f
3:12 6 10 mph 1017.2mb 53f 56f
3:06 8 9 mph 1017.1mb 53f 56f
3:00 6 7 mph 1017mb 53f 57f
2:54 6 7 mph 1017mb 53f 56f
2:48 6 8 mph 1017mb 53f 57f
2:36 6 8 mph 1017mb 53f 57f
2:30 6 7 mph 1017mb 53f 57f
2:24 6 9 mph 1017.1mb 53f 57f
2:18 6 7 mph 1017.1mb 53f 57f
2:12 3 7 mph 1017.1mb 53f 57f
2:06 6 8 mph 1017.1mb 53f 57f
2:00 6 7 mph 1017.3mb 53f 57f
1:54 6 8 mph 1017.3mb 53f 57f
1:48 6 8 mph 1017.3mb 53f 57f
1:36 7 9 mph 1017.2mb 53f 57f
1:30 6 7 mph 1017.2mb 53f 56f
1:24 6
mph
1017.1mb 53f 56f
1:18 6 7 mph 1017.1mb 53f 56f
1:12 6 8 mph 1017.2mb 53f 57f
1:06 6 7 mph 1017.2mb 53f 57f
1:00 7 9 mph 1017.2mb 53f 56f
12:54 8 9 mph 1017.2mb 53f 56f
12:48 9 10 mph 1017.2mb 53f 56f
12:36 10 13 mph 1017.1mb 53f 56f
12:30 10 13 mph 1017.1mb 53f 56f
12:24 10 11 mph 1017.1mb 53f 56f
12:18 11 13 mph 1017.1mb 53f 56f
12:12 9 10 mph 1017.1mb 53f 56f
12:06 8 9 mph 1017.1mb 53f 56f
12:00 9 11 mph 1017.1mb 53f 56f
dim. 07/24 11:54 10 11 mph 1017.1mb 53f 57f
11:48 10 11 mph 1017.1mb 53f 57f
11:36 9 10 mph 1017.2mb 53f 57f
11:30 9 11 mph 1017.2mb 53f 58f
11:24 9 10 mph 1017.2mb 53f 57f
11:18 8 11 mph 1017.3mb 53f 58f
11:12 9 11 mph 1017.3mb 53f 59f
11:06 10 14 mph 1017.3mb 53f 58f
11:00 11 16 mph 1017.2mb 53f 58f
10:54 10 13 mph 1017.3mb 53f 59f
10:48 11 16 mph 1017.2mb 53f 58f
10:36 9 14 mph 1017.3mb 53f 58f
10:30 10 14 mph 1017.2mb 53f 59f
10:24 9 13 mph 1017.3mb 53f 60f
10:18 11
mph
1017.3mb 53f 58f
10:12 10 11 mph 1017.3mb 53f 59f
10:06 10 13 mph 1017.4mb 53f 59f
10:00 10 11 mph 1017.4mb 53f 59f
9:54 8 9 mph 1017.4mb 53f 61f
9:48 8 11 mph 1017.4mb 53f 63f
9:36 7 9 mph 1017.4mb 53f 63f
9:30 9 14 mph 1017.3mb 53f 63f
9:24 9 11 mph 1017.3mb 53f 62f
9:18 8 11 mph 1017.2mb 53f 62f
9:12 8 13 mph 1017.2mb 53f 62f
9:06 9 14 mph 1017.2mb 53f 61f
9:00 9 13 mph 1017.2mb 53f 60f
8:54 9 11 mph 1017.1mb 53f 60f
8:48 11 14 mph 1017.1mb 53f 59f
8:36 13 15 mph 1017.1mb 53f 59f
8:30 13 15 mph 1017.1mb 53f 60f
8:24 13 15 mph 1017.2mb 53f 60f
8:18 14 15 mph 1017.2mb 53f 59f
8:12 13 15 mph 1017.1mb 53f 60f
8:06 14 15 mph 1017.2mb 53f 60f
8:00 13 15 mph 1017.2mb 53f 60f
7:54 13 15 mph 1017.2mb 53f 60f
7:48 14 16 mph 1017.3mb 53f 59f
7:36 15 17 mph 1017.3mb 53f 59f
7:30 15 18 mph 1017.3mb 53f 59f
7:24 15 18 mph 1017.3mb 53f 59f
7:18 17 20 mph 1017.3mb 53f 59f
7:12 16 18 mph 1017.3mb 53f 59f
7:06 16 20 mph 1017.3mb 53f 58f
7:00 16 18 mph 1017.3mb 54f 59f
6:54 17 20 mph 1017.3mb 54f 59f
6:48 17 21 mph 1017.4mb 54f 59f
6:36 18 21 mph 1017.5mb 54f 59f
6:30 16 20 mph 1017.5mb 54f 59f
6:24 18 21 mph 1017.6mb 54f 59f
6:18 17 20 mph 1017.6mb 54f 59f
6:12 17 21 mph 1017.7mb 54f 59f
6:06 20 22 mph 1017.7mb 54f 59f
6:00 16 21 mph 1017.8mb 54f 60f
5:54 16 23 mph 1017.8mb 54f 60f
5:48 21 24 mph 1017.9mb 54f 59f
5:36 20 24 mph 1017.9mb 54f 59f
5:30 21 24 mph 1018mb 54f 59f
5:24 20 25 mph 1018.1mb 54f 59f
5:18 20 22 mph 1018.2mb 54f 59f
5:12 20 25 mph 1018.2mb 54f 59f
5:06 21 25 mph 1018.3mb 54f 59f
5:00 20 24 mph 1018.4mb 54f 59f
4:54 21 24 mph 1018.4mb 54f 59f
4:48 20 26 mph 1018.5mb 54f 59f
4:36 21 24 mph 1018.6mb 54f 59f
4:30 21 23 mph 1018.7mb 55f 59f
4:24 18 23 mph 1018.7mb 55f 60f
4:18 16 21 mph 1018.8mb 55f 60f
4:12 17 23 mph 1018.8mb 55f 60f
4:06 18 25 mph 1018.8mb 55f 60f
4:00 18 26 mph 1018.9mb 55f 59f
3:54 20 25 mph 1018.9mb 55f 59f
3:48 18 25 mph 1018.9mb 55f 58f
3:36 18 24 mph 1018.9mb 55f 58f
3:30 20 26 mph 1019mb 55f 58f
3:24 21 23 mph 1019mb 55f 58f
3:18 18 22 mph 1019mb 55f 58f
3:12 17 20 mph 1019.1mb 55f 58f
3:06 17 24 mph 1019.2mb 55f 58f
3:00 22 25 mph 1019.3mb 54f 58f
2:54 17 21 mph 1019.3mb 54f 58f
2:48 17 21 mph 1019.4mb 54f 58f
2:36 16 20 mph 1019.4mb 54f 58f
2:30 14 17 mph 1019.4mb 54f 58f
2:24 15 17 mph 1019.4mb 54f 58f
2:18 15 17 mph 1019.5mb 54f 57f
2:12 13 16 mph 1019.6mb 54f 57f
2:06 15 17 mph 1019.6mb 54f 56f
2:00 13 16 mph 1019.6mb 54f 57f
1:54 14 17 mph 1019.7mb 54f 57f
1:48 13 15 mph 1019.6mb 54f 57f
1:36 14 17 mph 1019.7mb 54f 58f
1:30 15 17 mph 1019.7mb 54f 58f
1:24 14 16 mph 1019.8mb 54f 58f
1:18 14 17 mph 1019.9mb 54f 57f
1:12 15 18 mph 1019.9mb 54f 57f
1:06 15 17 mph 1020mb 54f 57f
1:00 16 18 mph 1020.1mb 54f 57f
12:54 14 18 mph 1020.2mb 53f 57f
12:48 17 20 mph 1020.2mb 53f 57f
12:36 14 16 mph 1020.2mb 53f 57f
12:30 14 15 mph 1020.2mb 53f 57f
12:24 14 15 mph 1020.2mb 53f 57f
12:18 15 16 mph 1020.2mb 53f 57f
12:12 14 15 mph 1020.3mb 53f 57f
12:06 14 15 mph 1020.3mb 53f 57f
12:00 13 16 mph 1020.3mb 53f 57f
11:54 13 17 mph 1020.4mb 53f 57f
11:48 14 17 mph 1020.3mb 53f 56f
11:36 11 14 mph 1020.4mb 53f 57f
11:30 7 13 mph 1020.4mb 53f 57f
11:24 3 8 mph 1020.5mb 53f 57f
11:18 6 8 mph 1020.5mb 53f 56f
11:12 3 6 mph 1020.5mb 53f 55f
11:06 2 6 mph 1020.4mb 53f 55f
11:00 3 6 mph 1020.5mb 53f 55f
10:54 5 8 mph 1020.4mb 53f 56f
10:48 8 10 mph 1020.4mb 53f 56f
10:36 9 10 mph 1020.5mb 53f 56f
10:30 9 11 mph 1020.5mb 53f 56f
10:24 11 13 mph 1020.6mb 53f 56f
10:18 7 10 mph 1020.6mb 53f 55f
10:12 6 8 mph 1020.6mb 53f 55f
10:06 6 9 mph 1020.7mb 53f 55f
10:00 9 10 mph 1020.7mb 53f 55f
9:54 9 10 mph 1020.7mb 53f 55f
9:48 9 10 mph 1020.8mb 53f 55f
9:36 7 10 mph 1020.9mb 53f 55f
9:30 9 11 mph 1020.9mb 53f 55f
9:24 9 10 mph 1021mb 53f 55f
9:18 8 9 mph 1021mb 53f 55f
9:12 8 11 mph 1021mb 52f 54f
9:06 10 13 mph 1021.1mb 52f 54f
9:00 10 13 mph 1021.1mb 52f 54f
8:54 11 13 mph 1021.1mb 52f 53f
8:48 9 11 mph 1021.1mb 52f 53f
8:36 7 8 mph 1021.1mb 53f 53f
8:30 2 3 mph 1021mb 53f 53f
8:24 2 5 mph 1021mb 53f 53f
8:18 3 6 mph 1021mb 52f 53f
8:12 6 7 mph 1020.9mb 52f 53f
8:06 6 8 mph 1020.9mb 52f 53f
8:00 7 10 mph 1020.8mb 52f 53f
7:54 9 10 mph 1020.9mb 53f 53f
7:48 9 11 mph 1020.9mb 53f 53f
7:36 10 14 mph 1020.9mb 53f 53f
7:30 13 15 mph 1020.9mb 53f 53f
7:24 9 13 mph 1020.9mb 53f 53f
7:18 5 8 mph 1020.9mb 53f 54f
7:12 6 9 mph 1020.9mb 53f 54f
7:06 8 10 mph 1020.9mb 53f 54f
7:00 8 10 mph 1020.9mb 53f 54f
6:54 6 7 mph 1020.8mb 53f 54f
6:48 1 2 mph 1020.8mb 53f 55f
6:36 3 5 mph 1020.8mb 53f 55f
6:30 2 3 mph 1020.8mb 53f 55f
6:24  -  1 mph 1020.8mb 53f 54f
6:18  -  1 mph 1020.8mb 53f 54f
6:12 2
mph
1020.8mb 53f 53f
6:06 2
mph
1020.8mb 53f 53f
6:00 1 2 mph 1020.9mb 53f 54f
5:54 2 3 mph 1020.9mb 53f 54f
5:48 2 3 mph 1020.9mb 53f 54f
5:36 2 3 mph 1020.9mb 53f 54f
5:30 2
mph
1021mb 53f 54f
5:24 1 2 mph 1021mb 53f 54f
5:18  -  1 mph 1021mb 53f 55f
5:12  -  1 mph 1020.9mb 53f 55f
5:06  -  2 mph 1020.9mb 53f 55f
5:00  -  2 mph 1020.9mb 53f 55f
4:54 5 6 mph 1020.9mb 53f 55f
4:48 5 6 mph 1020.9mb 53f 55f
4:36 3 6 mph 1021mb 53f 55f
4:30 3 5 mph 1021.1mb 53f 55f
4:24 5 6 mph 1021.2mb 53f 55f
4:18 3 5 mph 1021.2mb 53f 55f
4:12 3 5 mph 1021.3mb 53f 55f
4:06 1 3 mph 1021.3mb 53f 55f
4:00 1 3 mph 1021.4mb 53f 56f
3:54 2 3 mph 1021.4mb 53f 56f
3:48 3 5 mph 1021.5mb 53f 55f
3:36 3 5 mph 1021.6mb 53f 55f
3:30 2 3 mph 1021.6mb 53f 55f
3:24 3
mph
1021.7mb 53f 55f
3:18 1 5 mph 1021.7mb 53f 56f
3:12 1 3 mph 1021.7mb 53f 56f